sensor_id;sensor_type;location;lat;lon;timestamp;P1;durP1;ratioP1;P2;durP2;ratioP2
11486;SDS011;10510;47.942;9.442;2023-09-07T00:00:39;8.45;;;5.15;;
11486;SDS011;10510;47.942;9.442;2023-09-07T00:02:39;7.28;;;5.10;;
11486;SDS011;10510;47.942;9.442;2023-09-07T00:04:40;7.60;;;5.28;;
11486;SDS011;10510;47.942;9.442;2023-09-07T00:06:40;7.85;;;5.00;;
11486;SDS011;10510;47.942;9.442;2023-09-07T00:08:43;8.38;;;5.40;;
11486;SDS011;10510;47.942;9.442;2023-09-07T00:10:44;7.63;;;4.82;;
11486;SDS011;10510;47.942;9.442;2023-09-07T00:12:44;7.78;;;5.50;;
11486;SDS011;10510;47.942;9.442;2023-09-07T00:14:46;7.57;;;4.95;;
11486;SDS011;10510;47.942;9.442;2023-09-07T00:16:46;7.78;;;5.00;;
11486;SDS011;10510;47.942;9.442;2023-09-07T00:18:46;8.40;;;5.40;;
11486;SDS011;10510;47.942;9.442;2023-09-07T00:20:46;9.15;;;5.50;;
11486;SDS011;10510;47.942;9.442;2023-09-07T00:22:47;7.18;;;5.38;;
11486;SDS011;10510;47.942;9.442;2023-09-07T00:24:47;8.18;;;5.90;;
11486;SDS011;10510;47.942;9.442;2023-09-07T00:26:47;9.02;;;5.93;;
11486;SDS011;10510;47.942;9.442;2023-09-07T00:28:48;9.32;;;5.38;;
11486;SDS011;10510;47.942;9.442;2023-09-07T00:30:48;8.80;;;5.40;;
11486;SDS011;10510;47.942;9.442;2023-09-07T00:32:48;8.52;;;5.63;;
11486;SDS011;10510;47.942;9.442;2023-09-07T00:34:48;8.05;;;5.20;;
11486;SDS011;10510;47.942;9.442;2023-09-07T00:36:49;7.32;;;4.90;;
11486;SDS011;10510;47.942;9.442;2023-09-07T00:38:49;7.60;;;5.50;;
11486;SDS011;10510;47.942;9.442;2023-09-07T00:40:49;6.88;;;5.18;;
11486;SDS011;10510;47.942;9.442;2023-09-07T00:42:50;9.95;;;5.20;;
11486;SDS011;10510;47.942;9.442;2023-09-07T00:44:50;6.60;;;5.10;;
11486;SDS011;10510;47.942;9.442;2023-09-07T00:46:50;9.50;;;5.32;;
11486;SDS011;10510;47.942;9.442;2023-09-07T00:48:50;10.15;;;5.40;;
11486;SDS011;10510;47.942;9.442;2023-09-07T00:50:51;7.40;;;4.97;;
11486;SDS011;10510;47.942;9.442;2023-09-07T00:52:51;10.90;;;5.10;;
11486;SDS011;10510;47.942;9.442;2023-09-07T00:54:52;7.03;;;4.57;;
11486;SDS011;10510;47.942;9.442;2023-09-07T00:56:52;7.03;;;4.85;;
11486;SDS011;10510;47.942;9.442;2023-09-07T00:58:53;10.48;;;5.18;;
11486;SDS011;10510;47.942;9.442;2023-09-07T01:00:54;8.10;;;5.20;;
11486;SDS011;10510;47.942;9.442;2023-09-07T01:02:55;7.55;;;5.07;;
11486;SDS011;10510;47.942;9.442;2023-09-07T01:04:55;13.13;;;5.47;;
11486;SDS011;10510;47.942;9.442;2023-09-07T01:06:56;11.10;;;5.45;;
11486;SDS011;10510;47.942;9.442;2023-09-07T01:09:00;7.32;;;4.85;;
11486;SDS011;10510;47.942;9.442;2023-09-07T01:11:17;7.32;;;5.35;;
11486;SDS011;10510;47.942;9.442;2023-09-07T01:13:20;9.48;;;5.47;;
11486;SDS011;10510;47.942;9.442;2023-09-07T01:15:20;7.32;;;4.50;;
11486;SDS011;10510;47.942;9.442;2023-09-07T01:17:21;10.00;;;5.05;;
11486;SDS011;10510;47.942;9.442;2023-09-07T01:19:21;8.65;;;5.40;;
11486;SDS011;10510;47.942;9.442;2023-09-07T01:21:22;8.45;;;5.43;;
11486;SDS011;10510;47.942;9.442;2023-09-07T01:23:23;8.30;;;4.50;;
11486;SDS011;10510;47.942;9.442;2023-09-07T01:25:23;6.28;;;4.90;;
11486;SDS011;10510;47.942;9.442;2023-09-07T01:27:24;7.25;;;5.07;;
11486;SDS011;10510;47.942;9.442;2023-09-07T01:29:24;7.05;;;4.82;;
11486;SDS011;10510;47.942;9.442;2023-09-07T01:31:24;8.40;;;5.20;;
11486;SDS011;10510;47.942;9.442;2023-09-07T01:33:25;7.30;;;4.75;;
11486;SDS011;10510;47.942;9.442;2023-09-07T01:35:25;6.60;;;4.88;;
11486;SDS011;10510;47.942;9.442;2023-09-07T01:37:26;8.07;;;4.82;;
11486;SDS011;10510;47.942;9.442;2023-09-07T01:39:26;9.38;;;5.53;;
11486;SDS011;10510;47.942;9.442;2023-09-07T01:41:27;8.50;;;5.30;;
11486;SDS011;10510;47.942;9.442;2023-09-07T01:43:29;8.13;;;5.63;;
11486;SDS011;10510;47.942;9.442;2023-09-07T01:45:29;7.57;;;5.30;;
11486;SDS011;10510;47.942;9.442;2023-09-07T01:47:29;12.95;;;6.50;;
11486;SDS011;10510;47.942;9.442;2023-09-07T01:49:29;7.85;;;5.35;;
11486;SDS011;10510;47.942;9.442;2023-09-07T01:51:30;9.40;;;5.45;;
11486;SDS011;10510;47.942;9.442;2023-09-07T01:53:30;8.20;;;5.72;;
11486;SDS011;10510;47.942;9.442;2023-09-07T01:55:31;8.27;;;5.95;;
11486;SDS011;10510;47.942;9.442;2023-09-07T01:57:31;7.07;;;4.75;;
11486;SDS011;10510;47.942;9.442;2023-09-07T01:59:32;9.80;;;5.18;;
11486;SDS011;10510;47.942;9.442;2023-09-07T02:01:32;8.10;;;5.70;;
11486;SDS011;10510;47.942;9.442;2023-09-07T02:03:36;7.82;;;4.85;;
11486;SDS011;10510;47.942;9.442;2023-09-07T02:05:36;6.28;;;4.70;;
11486;SDS011;10510;47.942;9.442;2023-09-07T02:07:37;9.77;;;4.85;;
11486;SDS011;10510;47.942;9.442;2023-09-07T02:09:37;8.82;;;4.63;;
11486;SDS011;10510;47.942;9.442;2023-09-07T02:11:37;8.82;;;5.03;;
11486;SDS011;10510;47.942;9.442;2023-09-07T02:13:43;7.43;;;5.28;;
11486;SDS011;10510;47.942;9.442;2023-09-07T02:15:44;9.18;;;4.95;;
11486;SDS011;10510;47.942;9.442;2023-09-07T02:17:45;8.35;;;4.82;;
11486;SDS011;10510;47.942;9.442;2023-09-07T02:19:45;13.60;;;6.25;;
11486;SDS011;10510;47.942;9.442;2023-09-07T02:21:45;8.30;;;5.25;;
11486;SDS011;10510;47.942;9.442;2023-09-07T02:23:45;7.60;;;5.32;;
11486;SDS011;10510;47.942;9.442;2023-09-07T02:25:46;7.78;;;5.82;;
11486;SDS011;10510;47.942;9.442;2023-09-07T02:27:46;8.82;;;5.75;;
11486;SDS011;10510;47.942;9.442;2023-09-07T02:29:47;10.75;;;6.10;;
11486;SDS011;10510;47.942;9.442;2023-09-07T02:31:47;9.05;;;5.57;;
11486;SDS011;10510;47.942;9.442;2023-09-07T02:33:47;9.75;;;6.13;;
11486;SDS011;10510;47.942;9.442;2023-09-07T02:35:48;9.50;;;5.90;;
11486;SDS011;10510;47.942;9.442;2023-09-07T02:37:49;9.48;;;5.65;;
11486;SDS011;10510;47.942;9.442;2023-09-07T02:39:49;8.82;;;5.80;;
11486;SDS011;10510;47.942;9.442;2023-09-07T02:41:50;10.30;;;5.97;;
11486;SDS011;10510;47.942;9.442;2023-09-07T02:43:50;7.97;;;5.93;;
11486;SDS011;10510;47.942;9.442;2023-09-07T02:45:51;8.25;;;6.20;;
11486;SDS011;10510;47.942;9.442;2023-09-07T02:47:51;7.28;;;5.47;;
11486;SDS011;10510;47.942;9.442;2023-09-07T02:49:52;9.82;;;5.32;;
11486;SDS011;10510;47.942;9.442;2023-09-07T02:51:52;15.23;;;5.68;;
11486;SDS011;10510;47.942;9.442;2023-09-07T02:53:53;7.22;;;5.38;;
11486;SDS011;10510;47.942;9.442;2023-09-07T02:55:54;8.52;;;5.68;;
11486;SDS011;10510;47.942;9.442;2023-09-07T02:57:55;10.20;;;5.25;;
11486;SDS011;10510;47.942;9.442;2023-09-07T02:59:59;13.13;;;6.38;;
11486;SDS011;10510;47.942;9.442;2023-09-07T03:01:59;9.05;;;5.97;;
11486;SDS011;10510;47.942;9.442;2023-09-07T03:04:00;11.40;;;5.97;;
11486;SDS011;10510;47.942;9.442;2023-09-07T03:06:07;10.52;;;5.57;;
11486;SDS011;10510;47.942;9.442;2023-09-07T03:08:08;10.20;;;5.55;;
11486;SDS011;10510;47.942;9.442;2023-09-07T03:10:09;6.97;;;4.93;;
11486;SDS011;10510;47.942;9.442;2023-09-07T03:12:09;9.10;;;5.63;;
11486;SDS011;10510;47.942;9.442;2023-09-07T03:14:09;7.18;;;4.80;;
11486;SDS011;10510;47.942;9.442;2023-09-07T03:16:10;9.07;;;5.40;;
11486;SDS011;10510;47.942;9.442;2023-09-07T03:18:10;8.00;;;5.75;;
11486;SDS011;10510;47.942;9.442;2023-09-07T03:20:10;8.52;;;5.35;;
11486;SDS011;10510;47.942;9.442;2023-09-07T03:22:13;10.70;;;5.60;;
11486;SDS011;10510;47.942;9.442;2023-09-07T03:24:14;8.27;;;5.25;;
11486;SDS011;10510;47.942;9.442;2023-09-07T03:26:15;9.75;;;5.68;;
11486;SDS011;10510;47.942;9.442;2023-09-07T03:28:15;7.35;;;5.38;;
11486;SDS011;10510;47.942;9.442;2023-09-07T03:30:16;9.25;;;5.43;;
11486;SDS011;10510;47.942;9.442;2023-09-07T03:32:16;9.43;;;5.88;;
11486;SDS011;10510;47.942;9.442;2023-09-07T03:34:16;8.77;;;5.45;;
11486;SDS011;10510;47.942;9.442;2023-09-07T03:36:17;10.77;;;5.45;;
11486;SDS011;10510;47.942;9.442;2023-09-07T03:38:17;7.93;;;5.07;;
11486;SDS011;10510;47.942;9.442;2023-09-07T03:40:17;10.63;;;5.88;;
11486;SDS011;10510;47.942;9.442;2023-09-07T03:42:17;9.05;;;5.55;;
11486;SDS011;10510;47.942;9.442;2023-09-07T03:44:18;9.88;;;5.35;;
11486;SDS011;10510;47.942;9.442;2023-09-07T03:46:18;8.25;;;5.63;;
11486;SDS011;10510;47.942;9.442;2023-09-07T03:48:18;10.55;;;5.30;;
11486;SDS011;10510;47.942;9.442;2023-09-07T03:50:19;11.27;;;5.80;;
11486;SDS011;10510;47.942;9.442;2023-09-07T03:52:20;9.73;;;5.57;;
11486;SDS011;10510;47.942;9.442;2023-09-07T03:54:22;7.72;;;5.13;;
11486;SDS011;10510;47.942;9.442;2023-09-07T03:56:22;10.35;;;5.60;;
11486;SDS011;10510;47.942;9.442;2023-09-07T03:58:23;11.00;;;5.60;;
11486;SDS011;10510;47.942;9.442;2023-09-07T04:00:23;8.15;;;5.50;;
11486;SDS011;10510;47.942;9.442;2023-09-07T04:02:24;8.82;;;6.20;;
11486;SDS011;10510;47.942;9.442;2023-09-07T04:04:24;12.18;;;5.95;;
11486;SDS011;10510;47.942;9.442;2023-09-07T04:06:24;9.63;;;5.57;;
11486;SDS011;10510;47.942;9.442;2023-09-07T04:08:25;8.82;;;6.03;;
11486;SDS011;10510;47.942;9.442;2023-09-07T04:10:25;11.15;;;6.00;;
11486;SDS011;10510;47.942;9.442;2023-09-07T04:12:26;8.20;;;6.03;;
11486;SDS011;10510;47.942;9.442;2023-09-07T04:14:26;9.82;;;5.43;;
11486;SDS011;10510;47.942;9.442;2023-09-07T04:16:28;7.28;;;5.53;;
11486;SDS011;10510;47.942;9.442;2023-09-07T04:18:28;8.95;;;5.93;;
11486;SDS011;10510;47.942;9.442;2023-09-07T04:20:29;8.30;;;4.95;;
11486;SDS011;10510;47.942;9.442;2023-09-07T04:22:30;8.30;;;4.80;;
11486;SDS011;10510;47.942;9.442;2023-09-07T04:24:30;12.93;;;5.50;;
11486;SDS011;10510;47.942;9.442;2023-09-07T04:26:30;9.07;;;5.53;;
11486;SDS011;10510;47.942;9.442;2023-09-07T04:28:31;10.88;;;5.32;;
11486;SDS011;10510;47.942;9.442;2023-09-07T04:30:32;8.57;;;4.85;;
11486;SDS011;10510;47.942;9.442;2023-09-07T04:32:33;9.15;;;5.28;;
11486;SDS011;10510;47.942;9.442;2023-09-07T04:34:33;8.45;;;5.18;;
11486;SDS011;10510;47.942;9.442;2023-09-07T04:36:33;9.20;;;5.40;;
11486;SDS011;10510;47.942;9.442;2023-09-07T04:38:33;8.70;;;5.63;;
11486;SDS011;10510;47.942;9.442;2023-09-07T04:40:34;8.15;;;5.53;;
11486;SDS011;10510;47.942;9.442;2023-09-07T04:42:34;10.45;;;5.50;;
11486;SDS011;10510;47.942;9.442;2023-09-07T04:44:35;9.73;;;6.00;;
11486;SDS011;10510;47.942;9.442;2023-09-07T04:46:35;8.63;;;5.30;;
11486;SDS011;10510;47.942;9.442;2023-09-07T04:48:35;8.55;;;5.50;;
11486;SDS011;10510;47.942;9.442;2023-09-07T04:50:36;6.95;;;4.63;;
11486;SDS011;10510;47.942;9.442;2023-09-07T04:52:36;8.98;;;5.50;;
11486;SDS011;10510;47.942;9.442;2023-09-07T04:54:36;8.77;;;5.60;;
11486;SDS011;10510;47.942;9.442;2023-09-07T04:56:37;18.17;;;7.82;;
11486;SDS011;10510;47.942;9.442;2023-09-07T04:58:37;28.08;;;11.75;;
11486;SDS011;10510;47.942;9.442;2023-09-07T05:00:37;29.30;;;11.80;;
11486;SDS011;10510;47.942;9.442;2023-09-07T05:02:37;43.60;;;16.10;;
11486;SDS011;10510;47.942;9.442;2023-09-07T05:04:41;57.03;;;22.70;;
11486;SDS011;10510;47.942;9.442;2023-09-07T05:06:42;40.70;;;17.30;;
11486;SDS011;10510;47.942;9.442;2023-09-07T05:08:43;24.08;;;11.55;;
11486;SDS011;10510;47.942;9.442;2023-09-07T05:10:43;21.65;;;9.88;;
11486;SDS011;10510;47.942;9.442;2023-09-07T05:12:43;29.80;;;11.80;;
11486;SDS011;10510;47.942;9.442;2023-09-07T05:14:44;14.95;;;7.65;;
11486;SDS011;10510;47.942;9.442;2023-09-07T05:16:44;10.77;;;6.50;;
11486;SDS011;10510;47.942;9.442;2023-09-07T05:18:44;12.82;;;5.85;;
11486;SDS011;10510;47.942;9.442;2023-09-07T05:20:45;12.15;;;6.13;;
11486;SDS011;10510;47.942;9.442;2023-09-07T05:22:45;11.63;;;5.50;;
11486;SDS011;10510;47.942;9.442;2023-09-07T05:24:45;10.02;;;5.93;;
11486;SDS011;10510;47.942;9.442;2023-09-07T05:26:47;10.23;;;5.72;;
11486;SDS011;10510;47.942;9.442;2023-09-07T05:28:49;12.88;;;6.53;;
11486;SDS011;10510;47.942;9.442;2023-09-07T05:30:50;10.43;;;5.90;;
11486;SDS011;10510;47.942;9.442;2023-09-07T05:32:50;8.75;;;6.13;;
11486;SDS011;10510;47.942;9.442;2023-09-07T05:34:50;9.38;;;5.90;;
11486;SDS011;10510;47.942;9.442;2023-09-07T05:36:51;10.18;;;6.22;;
11486;SDS011;10510;47.942;9.442;2023-09-07T05:38:51;11.68;;;5.63;;
11486;SDS011;10510;47.942;9.442;2023-09-07T05:40:51;11.10;;;5.72;;
11486;SDS011;10510;47.942;9.442;2023-09-07T05:42:54;16.65;;;6.13;;
11486;SDS011;10510;47.942;9.442;2023-09-07T05:44:54;12.77;;;5.32;;
11486;SDS011;10510;47.942;9.442;2023-09-07T05:46:54;10.10;;;5.80;;
11486;SDS011;10510;47.942;9.442;2023-09-07T05:48:54;13.30;;;5.95;;
11486;SDS011;10510;47.942;9.442;2023-09-07T05:50:55;11.38;;;6.03;;
11486;SDS011;10510;47.942;9.442;2023-09-07T05:52:55;16.70;;;6.10;;
11486;SDS011;10510;47.942;9.442;2023-09-07T05:54:55;7.95;;;5.75;;
11486;SDS011;10510;47.942;9.442;2023-09-07T05:56:56;9.50;;;6.03;;
11486;SDS011;10510;47.942;9.442;2023-09-07T05:58:56;12.32;;;7.10;;
11486;SDS011;10510;47.942;9.442;2023-09-07T06:00:56;12.15;;;7.55;;
11486;SDS011;10510;47.942;9.442;2023-09-07T06:02:56;10.95;;;7.25;;
11486;SDS011;10510;47.942;9.442;2023-09-07T06:04:57;14.68;;;7.40;;
11486;SDS011;10510;47.942;9.442;2023-09-07T06:06:57;14.02;;;6.85;;
11486;SDS011;10510;47.942;9.442;2023-09-07T06:08:57;15.05;;;6.50;;
11486;SDS011;10510;47.942;9.442;2023-09-07T06:11:00;14.23;;;6.72;;
11486;SDS011;10510;47.942;9.442;2023-09-07T06:13:01;11.52;;;7.03;;
11486;SDS011;10510;47.942;9.442;2023-09-07T06:15:01;14.70;;;7.50;;
11486;SDS011;10510;47.942;9.442;2023-09-07T06:17:02;11.25;;;7.20;;
11486;SDS011;10510;47.942;9.442;2023-09-07T06:19:03;16.10;;;8.48;;
11486;SDS011;10510;47.942;9.442;2023-09-07T06:21:04;15.23;;;8.77;;
11486;SDS011;10510;47.942;9.442;2023-09-07T06:23:05;23.10;;;8.90;;
11486;SDS011;10510;47.942;9.442;2023-09-07T06:25:06;11.98;;;7.78;;
11486;SDS011;10510;47.942;9.442;2023-09-07T06:27:06;12.80;;;7.70;;
11486;SDS011;10510;47.942;9.442;2023-09-07T06:29:06;17.02;;;7.80;;
11486;SDS011;10510;47.942;9.442;2023-09-07T06:31:07;12.80;;;6.97;;
11486;SDS011;10510;47.942;9.442;2023-09-07T06:33:07;11.65;;;7.60;;
11486;SDS011;10510;47.942;9.442;2023-09-07T06:35:07;11.43;;;7.35;;
11486;SDS011;10510;47.942;9.442;2023-09-07T06:37:08;14.90;;;7.70;;
11486;SDS011;10510;47.942;9.442;2023-09-07T06:39:08;13.88;;;7.53;;
11486;SDS011;10510;47.942;9.442;2023-09-07T06:41:09;11.13;;;7.30;;
11486;SDS011;10510;47.942;9.442;2023-09-07T06:43:09;10.65;;;7.28;;
11486;SDS011;10510;47.942;9.442;2023-09-07T06:45:10;12.85;;;8.57;;
11486;SDS011;10510;47.942;9.442;2023-09-07T06:47:10;13.77;;;6.97;;
11486;SDS011;10510;47.942;9.442;2023-09-07T06:49:10;12.05;;;7.68;;
11486;SDS011;10510;47.942;9.442;2023-09-07T06:51:11;13.10;;;6.88;;
11486;SDS011;10510;47.942;9.442;2023-09-07T06:53:11;11.95;;;6.68;;
11486;SDS011;10510;47.942;9.442;2023-09-07T06:55:11;11.10;;;7.28;;
11486;SDS011;10510;47.942;9.442;2023-09-07T06:57:11;15.25;;;7.00;;
11486;SDS011;10510;47.942;9.442;2023-09-07T06:59:12;14.02;;;7.10;;
11486;SDS011;10510;47.942;9.442;2023-09-07T07:01:13;12.45;;;7.55;;
11486;SDS011;10510;47.942;9.442;2023-09-07T07:03:14;17.17;;;7.93;;
11486;SDS011;10510;47.942;9.442;2023-09-07T07:05:14;15.85;;;7.30;;
11486;SDS011;10510;47.942;9.442;2023-09-07T07:07:14;19.65;;;7.05;;
11486;SDS011;10510;47.942;9.442;2023-09-07T07:09:15;16.05;;;6.50;;
11486;SDS011;10510;47.942;9.442;2023-09-07T07:11:15;17.60;;;6.82;;
11486;SDS011;10510;47.942;9.442;2023-09-07T07:13:15;16.23;;;7.00;;
11486;SDS011;10510;47.942;9.442;2023-09-07T07:15:16;9.50;;;6.20;;
11486;SDS011;10510;47.942;9.442;2023-09-07T07:17:16;25.80;;;8.00;;
11486;SDS011;10510;47.942;9.442;2023-09-07T07:19:16;12.27;;;6.65;;
11486;SDS011;10510;47.942;9.442;2023-09-07T07:21:17;13.25;;;6.32;;
11486;SDS011;10510;47.942;9.442;2023-09-07T07:23:17;7.07;;;5.20;;
11486;SDS011;10510;47.942;9.442;2023-09-07T07:25:17;11.95;;;6.00;;
11486;SDS011;10510;47.942;9.442;2023-09-07T07:27:18;9.43;;;5.93;;
11486;SDS011;10510;47.942;9.442;2023-09-07T07:29:18;13.30;;;7.03;;
11486;SDS011;10510;47.942;9.442;2023-09-07T07:31:18;12.18;;;5.95;;
11486;SDS011;10510;47.942;9.442;2023-09-07T07:33:19;8.48;;;6.05;;
11486;SDS011;10510;47.942;9.442;2023-09-07T07:35:19;10.82;;;5.85;;
11486;SDS011;10510;47.942;9.442;2023-09-07T07:37:19;13.50;;;6.10;;
11486;SDS011;10510;47.942;9.442;2023-09-07T07:39:20;12.25;;;6.10;;
11486;SDS011;10510;47.942;9.442;2023-09-07T07:41:20;11.18;;;5.90;;
11486;SDS011;10510;47.942;9.442;2023-09-07T07:43:21;15.45;;;6.95;;
11486;SDS011;10510;47.942;9.442;2023-09-07T07:45:21;14.18;;;6.03;;
11486;SDS011;10510;47.942;9.442;2023-09-07T07:47:21;10.68;;;5.88;;
11486;SDS011;10510;47.942;9.442;2023-09-07T07:49:22;8.60;;;5.88;;
11486;SDS011;10510;47.942;9.442;2023-09-07T07:51:22;6.88;;;5.25;;
11486;SDS011;10510;47.942;9.442;2023-09-07T07:53:22;12.02;;;5.45;;
11486;SDS011;10510;47.942;9.442;2023-09-07T07:55:23;10.48;;;5.50;;
11486;SDS011;10510;47.942;9.442;2023-09-07T07:57:24;9.65;;;5.65;;
11486;SDS011;10510;47.942;9.442;2023-09-07T07:59:24;11.23;;;4.90;;
11486;SDS011;10510;47.942;9.442;2023-09-07T08:01:24;8.05;;;4.60;;
11486;SDS011;10510;47.942;9.442;2023-09-07T08:03:26;8.88;;;5.40;;
11486;SDS011;10510;47.942;9.442;2023-09-07T08:05:26;12.20;;;5.35;;
11486;SDS011;10510;47.942;9.442;2023-09-07T08:07:26;14.45;;;4.72;;
11486;SDS011;10510;47.942;9.442;2023-09-07T08:09:36;6.29;;;4.21;;
11486;SDS011;10510;47.942;9.442;2023-09-07T08:11:38;9.80;;;5.00;;
11486;SDS011;10510;47.942;9.442;2023-09-07T08:13:39;17.42;;;5.45;;
11486;SDS011;10510;47.942;9.442;2023-09-07T08:15:40;8.68;;;5.43;;
11486;SDS011;10510;47.942;9.442;2023-09-07T08:17:41;13.38;;;5.53;;
11486;SDS011;10510;47.942;9.442;2023-09-07T08:19:41;8.23;;;4.65;;
11486;SDS011;10510;47.942;9.442;2023-09-07T08:21:43;11.77;;;4.97;;
11486;SDS011;10510;47.942;9.442;2023-09-07T08:23:45;13.88;;;5.07;;
11486;SDS011;10510;47.942;9.442;2023-09-07T08:25:45;11.00;;;6.65;;
11486;SDS011;10510;47.942;9.442;2023-09-07T08:27:46;5.50;;;4.68;;
11486;SDS011;10510;47.942;9.442;2023-09-07T08:29:47;12.65;;;5.10;;
11486;SDS011;10510;47.942;9.442;2023-09-07T08:31:51;10.00;;;5.53;;
11486;SDS011;10510;47.942;9.442;2023-09-07T08:33:51;11.70;;;4.78;;
11486;SDS011;10510;47.942;9.442;2023-09-07T08:35:52;11.30;;;4.97;;
11486;SDS011;10510;47.942;9.442;2023-09-07T08:38:05;7.15;;;4.72;;
11486;SDS011;10510;47.942;9.442;2023-09-07T08:40:08;11.15;;;4.15;;
11486;SDS011;10510;47.942;9.442;2023-09-07T08:42:11;6.57;;;4.93;;
11486;SDS011;10510;47.942;9.442;2023-09-07T08:44:14;8.82;;;5.55;;
11486;SDS011;10510;47.942;9.442;2023-09-07T08:46:19;7.72;;;4.10;;
11486;SDS011;10510;47.942;9.442;2023-09-07T08:48:21;8.25;;;4.63;;
11486;SDS011;10510;47.942;9.442;2023-09-07T08:50:22;6.90;;;4.93;;
11486;SDS011;10510;47.942;9.442;2023-09-07T08:52:23;13.20;;;5.38;;
11486;SDS011;10510;47.942;9.442;2023-09-07T08:54:24;9.10;;;5.45;;
11486;SDS011;10510;47.942;9.442;2023-09-07T08:56:25;9.82;;;5.45;;
11486;SDS011;10510;47.942;9.442;2023-09-07T09:00:22;10.77;;;5.57;;
11486;SDS011;10510;47.942;9.442;2023-09-07T09:02:23;6.50;;;4.55;;
11486;SDS011;10510;47.942;9.442;2023-09-07T09:04:24;7.43;;;5.07;;
11486;SDS011;10510;47.942;9.442;2023-09-07T09:06:25;7.35;;;4.90;;
11486;SDS011;10510;47.942;9.442;2023-09-07T09:08:25;12.57;;;5.95;;
11486;SDS011;10510;47.942;9.442;2023-09-07T09:10:26;10.52;;;6.20;;
11486;SDS011;10510;47.942;9.442;2023-09-07T09:12:26;9.25;;;5.78;;
11486;SDS011;10510;47.942;9.442;2023-09-07T09:14:26;7.25;;;5.60;;
11486;SDS011;10510;47.942;9.442;2023-09-07T09:16:30;7.43;;;5.05;;
11486;SDS011;10510;47.942;9.442;2023-09-07T09:18:30;10.40;;;6.90;;
11486;SDS011;10510;47.942;9.442;2023-09-07T09:20:31;11.77;;;6.47;;
11486;SDS011;10510;47.942;9.442;2023-09-07T09:22:31;12.85;;;7.20;;
11486;SDS011;10510;47.942;9.442;2023-09-07T09:24:32;8.95;;;7.18;;
11486;SDS011;10510;47.942;9.442;2023-09-07T09:26:34;8.75;;;5.72;;
11486;SDS011;10510;47.942;9.442;2023-09-07T09:28:37;7.95;;;6.07;;
11486;SDS011;10510;47.942;9.442;2023-09-07T09:30:37;13.95;;;6.10;;
11486;SDS011;10510;47.942;9.442;2023-09-07T09:32:38;8.65;;;6.57;;
11486;SDS011;10510;47.942;9.442;2023-09-07T09:34:38;13.32;;;6.05;;
11486;SDS011;10510;47.942;9.442;2023-09-07T09:36:40;8.75;;;5.72;;
11486;SDS011;10510;47.942;9.442;2023-09-07T09:38:46;9.13;;;6.28;;
11486;SDS011;10510;47.942;9.442;2023-09-07T09:40:48;13.02;;;6.25;;
11486;SDS011;10510;47.942;9.442;2023-09-07T09:42:48;9.98;;;5.97;;
11486;SDS011;10510;47.942;9.442;2023-09-07T09:44:52;10.20;;;6.03;;
11486;SDS011;10510;47.942;9.442;2023-09-07T09:46:54;10.50;;;5.95;;
11486;SDS011;10510;47.942;9.442;2023-09-07T09:48:55;8.55;;;6.53;;
11486;SDS011;10510;47.942;9.442;2023-09-07T09:52:58;10.93;;;7.25;;
11486;SDS011;10510;47.942;9.442;2023-09-07T09:55:00;13.35;;;7.00;;
11486;SDS011;10510;47.942;9.442;2023-09-07T09:57:00;8.52;;;5.80;;
11486;SDS011;10510;47.942;9.442;2023-09-07T09:59:00;11.38;;;6.70;;
11486;SDS011;10510;47.942;9.442;2023-09-07T10:01:01;8.88;;;6.38;;
11486;SDS011;10510;47.942;9.442;2023-09-07T10:03:07;8.68;;;6.55;;
11486;SDS011;10510;47.942;9.442;2023-09-07T10:05:13;7.90;;;6.15;;
11486;SDS011;10510;47.942;9.442;2023-09-07T10:07:14;9.93;;;6.43;;
11486;SDS011;10510;47.942;9.442;2023-09-07T10:09:14;12.20;;;5.47;;
11486;SDS011;10510;47.942;9.442;2023-09-07T10:11:25;10.70;;;5.95;;
11486;SDS011;10510;47.942;9.442;2023-09-07T10:13:32;8.93;;;5.25;;
11486;SDS011;10510;47.942;9.442;2023-09-07T10:15:36;8.60;;;5.43;;
11486;SDS011;10510;47.942;9.442;2023-09-07T10:17:36;8.35;;;5.00;;
11486;SDS011;10510;47.942;9.442;2023-09-07T10:19:36;8.40;;;5.78;;
11486;SDS011;10510;47.942;9.442;2023-09-07T10:21:39;13.02;;;5.50;;
11486;SDS011;10510;47.942;9.442;2023-09-07T10:26:26;7.97;;;5.63;;
11486;SDS011;10510;47.942;9.442;2023-09-07T10:28:27;8.30;;;5.07;;
11486;SDS011;10510;47.942;9.442;2023-09-07T10:30:27;10.95;;;5.35;;
11486;SDS011;10510;47.942;9.442;2023-09-07T10:32:37;11.23;;;5.80;;
11486;SDS011;10510;47.942;9.442;2023-09-07T10:36:25;11.40;;;6.03;;
11486;SDS011;10510;47.942;9.442;2023-09-07T10:38:27;7.55;;;4.57;;
11486;SDS011;10510;47.942;9.442;2023-09-07T10:40:28;9.27;;;4.55;;
11486;SDS011;10510;47.942;9.442;2023-09-07T10:42:28;6.90;;;5.30;;
11486;SDS011;10510;47.942;9.442;2023-09-07T10:44:28;5.93;;;4.72;;
11486;SDS011;10510;47.942;9.442;2023-09-07T10:46:29;8.35;;;4.95;;
11486;SDS011;10510;47.942;9.442;2023-09-07T10:48:30;8.32;;;4.55;;
11486;SDS011;10510;47.942;9.442;2023-09-07T10:50:31;8.18;;;4.82;;
11486;SDS011;10510;47.942;9.442;2023-09-07T10:52:42;7.07;;;4.97;;
11486;SDS011;10510;47.942;9.442;2023-09-07T10:54:43;7.65;;;5.13;;
11486;SDS011;10510;47.942;9.442;2023-09-07T10:56:44;6.15;;;4.40;;
11486;SDS011;10510;47.942;9.442;2023-09-07T10:58:45;7.53;;;4.93;;
11486;SDS011;10510;47.942;9.442;2023-09-07T11:00:46;9.55;;;4.47;;
11486;SDS011;10510;47.942;9.442;2023-09-07T11:02:46;5.63;;;4.30;;
11486;SDS011;10510;47.942;9.442;2023-09-07T11:04:46;6.30;;;4.87;;
11486;SDS011;10510;47.942;9.442;2023-09-07T11:06:47;7.07;;;5.03;;
11486;SDS011;10510;47.942;9.442;2023-09-07T11:08:47;6.28;;;4.85;;
11486;SDS011;10510;47.942;9.442;2023-09-07T11:10:49;6.57;;;4.65;;
11486;SDS011;10510;47.942;9.442;2023-09-07T11:12:50;7.10;;;4.80;;
11486;SDS011;10510;47.942;9.442;2023-09-07T11:14:51;9.40;;;4.65;;
11486;SDS011;10510;47.942;9.442;2023-09-07T11:16:55;6.22;;;4.50;;
11486;SDS011;10510;47.942;9.442;2023-09-07T11:18:56;13.38;;;4.10;;
11486;SDS011;10510;47.942;9.442;2023-09-07T11:20:56;11.88;;;4.82;;
11486;SDS011;10510;47.942;9.442;2023-09-07T11:22:57;6.82;;;4.65;;
11486;SDS011;10510;47.942;9.442;2023-09-07T11:24:59;7.82;;;4.28;;
11486;SDS011;10510;47.942;9.442;2023-09-07T11:27:00;8.63;;;4.50;;
11486;SDS011;10510;47.942;9.442;2023-09-07T11:29:00;7.63;;;4.70;;
11486;SDS011;10510;47.942;9.442;2023-09-07T11:31:01;11.25;;;4.90;;
11486;SDS011;10510;47.942;9.442;2023-09-07T11:33:04;8.02;;;4.32;;
11486;SDS011;10510;47.942;9.442;2023-09-07T11:35:06;7.95;;;4.80;;
11486;SDS011;10510;47.942;9.442;2023-09-07T11:37:07;5.88;;;4.00;;
11486;SDS011;10510;47.942;9.442;2023-09-07T11:39:07;7.60;;;4.10;;
11486;SDS011;10510;47.942;9.442;2023-09-07T11:41:14;7.22;;;4.60;;
11486;SDS011;10510;47.942;9.442;2023-09-07T11:43:15;6.35;;;4.30;;
11486;SDS011;10510;47.942;9.442;2023-09-07T11:45:16;6.75;;;4.47;;
11486;SDS011;10510;47.942;9.442;2023-09-07T11:47:18;5.50;;;3.65;;
11486;SDS011;10510;47.942;9.442;2023-09-07T11:49:18;8.45;;;4.07;;
11486;SDS011;10510;47.942;9.442;2023-09-07T11:51:20;8.45;;;4.20;;
11486;SDS011;10510;47.942;9.442;2023-09-07T11:53:21;7.32;;;3.92;;
11486;SDS011;10510;47.942;9.442;2023-09-07T11:55:22;7.35;;;4.10;;
11486;SDS011;10510;47.942;9.442;2023-09-07T11:57:22;6.50;;;4.55;;
11486;SDS011;10510;47.942;9.442;2023-09-07T11:59:22;6.60;;;4.50;;
11486;SDS011;10510;47.942;9.442;2023-09-07T12:01:23;7.50;;;4.43;;
11486;SDS011;10510;47.942;9.442;2023-09-07T12:03:23;5.30;;;3.95;;
11486;SDS011;10510;47.942;9.442;2023-09-07T12:05:23;5.05;;;3.97;;
11486;SDS011;10510;47.942;9.442;2023-09-07T12:07:24;7.72;;;4.60;;
11486;SDS011;10510;47.942;9.442;2023-09-07T12:09:25;5.47;;;4.38;;
11486;SDS011;10510;47.942;9.442;2023-09-07T12:11:25;7.43;;;3.85;;
11486;SDS011;10510;47.942;9.442;2023-09-07T12:13:25;5.32;;;4.20;;